Terminal Aerodrome Forecast
Issued by NWS

Home | Current Version | Previous Version | Graphics & Text | Print | Product List | Glossary On
Versions: 1 2 3 4 5 6 7 8 9 10 11 12 13
985
FTUS43 KMPX 181126
TAFRWF
TAF
KRWF 181126Z 1812/1912 31008KT P6SM OVC100
     FM181500 32011G17KT P6SM SCT250
     FM181800 32018G26KT P6SM SKC
     FM190200 31012G18KT P6SM SKC
     FM190700 29007KT P6SM SKC=

USA.gov is the U.S. government's official web portal to all federal, state and local government web resources and services.